USTR

Roshchino International

Tyumen,
TAF USTR 182304Z 1900/1924 20006MPS 9999 SCT015 BKN030 TEMPO 1900/1906 22009MPS DRSN
Issued Valid From Valid To
Jan-18 @ 23:04 UTC
(3 hours ago)
Jan-19 @ 00:00 UTC
(3 hours ago)
Jan-20 @ 00:00 UTC
(in 21 hours)
Jan-19 @ 00:00 to Jan-20 @ 00:00
TAF USTR 182304Z 1900/1924 20006MPS 9999 SCT015 BKN030
Wind Visibility Clouds
200° at 12 knots 10,000+ meters
  • Scattered at 1,500' AGL
  • Broken at 3,000' AGL
Temporary Jan-19 @ 00:00 to Jan-19 @ 06:00
TEMPO 1900/1906 22009MPS DRSN
Wind Conditions
220° at 17 knots
  • Low drifting
  • Snow
TAF USTR 182304Z 1900/1924 20006MPS 9999 SCT015 BKN030 TEMPO 1900/1906 22009MPS DRSN
Issued Jan-18 @ 23:04 UTC
(3 hours ago)
Valid From Jan-19 @ 00:00 UTC
(3 hours ago)
Valid To Jan-20 @ 00:00 UTC
(in 21 hours)
Jan-19 @ 00:00 - Jan-20 @ 00:00
Wind Visibility
200° at 12 knots 10,000+ meters
Clouds
  • Scattered at 1,500' AGL
  • Broken at 3,000' AGL
Temporary Jan-19 @ 00:00 - Jan-19 @ 06:00
Wind
220° at 17 knots
Conditions
  • Low drifting
  • Snow